Time;durP1;ratioP1;P1;durP2;ratioP2;P2;SDS_P1;SDS_P2;PMS_P1;PMS_P2;Temp;Humidity;BMP_temperature;BMP_pressure;BME280_temperature;BME280_humidity;BME280_pressure;Samples;Min_cycle;Max_cycle;Signal;HPM_P1;HPM_P2
2021/12/30 00:00:47;;;;;;;14.13;9.65;;;;;;;;;;5071829;28;20036;-69
2021/12/30 00:03:13;;;;;;;15.15;9.85;;;;;;;;;;5052996;28;20446;-70
2021/12/30 00:05:40;;;;;;;15.27;9.18;;;;;;;;;;5071868;28;20020;-70
2021/12/30 00:08:07;;;;;;;14.38;9.60;;;;;;;;;;5071828;28;20024;-70
2021/12/30 00:10:34;;;;;;;12.88;8.93;;;;;;;;;;5053639;28;20417;-70
2021/12/30 00:13:00;;;;;;;9.88;7.32;;;;;;;;;;5071081;28;20034;-69
2021/12/30 00:15:26;;;;;;;9.18;6.18;;;;;;;;;;5053964;28;20111;-70
2021/12/30 00:17:52;;;;;;;11.32;6.03;;;;;;;;;;5053523;28;20028;-70
2021/12/30 00:20:19;;;;;;;11.27;6.82;;;;;;;;;;5071697;28;20032;-70
2021/12/30 00:22:46;;;;;;;11.05;7.80;;;;;;;;;;5070823;28;20027;-69
2021/12/30 00:25:13;;;;;;;9.68;6.45;;;;;;;;;;5071303;28;20035;-70
2021/12/30 00:27:39;;;;;;;13.73;8.63;;;;;;;;;;5053207;28;20024;-70
2021/12/30 00:30:07;;;;;;;12.77;8.90;;;;;;;;;;5053347;28;20016;-70
2021/12/30 00:32:33;;;;;;;15.00;8.77;;;;;;;;;;5053296;28;20111;-70
2021/12/30 00:34:59;;;;;;;13.55;9.52;;;;;;;;;;5050665;28;20052;-70
2021/12/30 00:37:25;;;;;;;16.27;9.50;;;;;;;;;;5061425;28;20509;-70
2021/12/30 00:39:52;;;;;;;17.30;9.27;;;;;;;;;;5051860;28;20029;-70
2021/12/30 00:42:18;;;;;;;13.65;9.55;;;;;;;;;;5068973;28;20036;-68
2021/12/30 00:44:44;;;;;;;15.20;8.55;;;;;;;;;;5048535;28;20048;-69
2021/12/30 00:47:10;;;;;;;15.07;8.43;;;;;;;;;;5051172;28;20025;-70
2021/12/30 00:49:36;;;;;;;13.90;8.98;;;;;;;;;;5051298;28;20101;-70
2021/12/30 00:52:02;;;;;;;13.70;9.15;;;;;;;;;;5051151;28;20089;-70
2021/12/30 00:54:28;;;;;;;12.70;8.52;;;;;;;;;;5032223;28;20494;-70
2021/12/30 00:56:54;;;;;;;16.73;10.50;;;;;;;;;;5033240;28;20115;-70
2021/12/30 00:59:20;;;;;;;14.63;9.30;;;;;;;;;;5033179;28;20520;-70
2021/12/30 01:01:46;;;;;;;13.73;9.10;;;;;;;;;;5051019;28;20501;-69
2021/12/30 01:04:12;;;;;;;15.05;9.15;;;;;;;;;;5050266;28;20498;-70
2021/12/30 01:06:38;;;;;;;15.52;8.38;;;;;;;;;;5051064;28;20024;-70
2021/12/30 01:09:05;;;;;;;14.35;8.25;;;;;;;;;;5033262;28;20040;-70
2021/12/30 01:11:31;;;;;;;16.52;8.82;;;;;;;;;;5051064;28;20474;-70
2021/12/30 01:14:03;;;;;;;14.10;8.57;;;;;;;;;;5032575;28;20052;-70
2021/12/30 01:16:31;;;;;;;19.27;9.73;;;;;;;;;;5051174;28;20025;-70
2021/12/30 01:19:23;;;;;;;12.15;7.72;;;;;;;;;;5033037;28;20021;-70
2021/12/30 01:21:46;;;;;;;14.48;9.18;;;;;;;;;;5050158;28;20029;-70
2021/12/30 01:24:12;;;;;;;16.08;9.50;;;;;;;;;;5069533;28;20021;-70
2021/12/30 01:26:38;;;;;;;16.25;9.38;;;;;;;;;;5069612;28;20034;-70
2021/12/30 01:29:04;;;;;;;16.20;9.15;;;;;;;;;;5069600;28;20059;-70
2021/12/30 01:31:30;;;;;;;15.95;10.48;;;;;;;;;;5070933;28;20028;-70
2021/12/30 01:33:56;;;;;;;17.08;9.63;;;;;;;;;;5069940;28;20108;-70
2021/12/30 01:36:25;;;;;;;23.20;11.45;;;;;;;;;;5069431;28;20116;-70
2021/12/30 01:38:52;;;;;;;17.23;10.10;;;;;;;;;;5069575;28;20490;-70
2021/12/30 01:41:19;;;;;;;16.45;11.00;;;;;;;;;;5071715;28;20477;-70
2021/12/30 01:43:45;;;;;;;19.80;12.35;;;;;;;;;;5073670;28;20056;-70
2021/12/30 01:46:11;;;;;;;19.15;12.20;;;;;;;;;;5073253;28;20055;-70
2021/12/30 01:48:38;;;;;;;20.33;12.77;;;;;;;;;;5072833;28;20024;-70
2021/12/30 01:51:04;;;;;;;22.60;12.85;;;;;;;;;;5074019;28;20105;-70
2021/12/30 01:53:30;;;;;;;24.95;13.73;;;;;;;;;;5071996;28;20456;-70
2021/12/30 01:55:57;;;;;;;24.30;13.23;;;;;;;;;;5072889;28;20124;-69
2021/12/30 01:58:23;;;;;;;26.02;14.35;;;;;;;;;;5074136;28;20028;-70
2021/12/30 02:00:50;;;;;;;22.40;14.15;;;;;;;;;;5074109;28;20500;-70
2021/12/30 02:03:17;;;;;;;25.83;13.27;;;;;;;;;;5071676;28;20020;-70
2021/12/30 02:05:43;;;;;;;24.77;13.85;;;;;;;;;;5074035;28;20489;-70
2021/12/30 02:08:13;;;;;;;25.42;14.38;;;;;;;;;;5073931;28;20027;-70
2021/12/30 02:10:42;;;;;;;27.83;14.70;;;;;;;;;;5074036;28;20020;-69
2021/12/30 02:13:09;;;;;;;24.98;15.48;;;;;;;;;;5071734;28;20027;-70
2021/12/30 02:15:35;;;;;;;22.35;12.75;;;;;;;;;;5073946;28;20020;-70
2021/12/30 02:18:02;;;;;;;25.38;13.60;;;;;;;;;;5073764;28;20016;-70
2021/12/30 02:20:44;;;;;;;24.17;13.88;;;;;;;;;;5072427;28;20054;-70
2021/12/30 02:23:11;;;;;;;27.30;14.77;;;;;;;;;;5063597;28;20021;-71
2021/12/30 02:25:37;;;;;;;29.95;16.52;;;;;;;;;;5073699;28;20039;-70
2021/12/30 02:28:07;;;;;;;29.85;15.93;;;;;;;;;;5073602;28;20024;-70
2021/12/30 02:30:33;;;;;;;33.35;16.83;;;;;;;;;;5055409;28;20060;-70
2021/12/30 02:32:59;;;;;;;33.53;16.73;;;;;;;;;;5072804;28;20028;-70
2021/12/30 02:35:25;;;;;;;35.70;19.30;;;;;;;;;;5055358;28;20085;-70
2021/12/30 02:37:51;;;;;;;35.28;18.73;;;;;;;;;;5055441;28;20033;-71
2021/12/30 02:40:32;;;;;;;39.35;20.92;;;;;;;;;;5073376;28;20020;-69
2021/12/30 02:42:58;;;;;;;42.13;20.23;;;;;;;;;;5051727;28;20458;-69
2021/12/30 02:45:24;;;;;;;39.25;19.95;;;;;;;;;;5070043;28;20435;-69
2021/12/30 02:47:50;;;;;;;44.90;23.10;;;;;;;;;;5073191;28;20035;-69
2021/12/30 02:50:16;;;;;;;43.72;22.45;;;;;;;;;;5073099;28;20020;-70
2021/12/30 02:52:43;;;;;;;48.47;22.70;;;;;;;;;;5054283;28;20028;-70
2021/12/30 02:55:09;;;;;;;43.97;21.73;;;;;;;;;;5054609;28;20119;-70
2021/12/30 02:57:35;;;;;;;46.08;22.83;;;;;;;;;;5055049;28;20024;-70
2021/12/30 03:00:01;;;;;;;46.05;22.75;;;;;;;;;;5055052;28;20381;-70
2021/12/30 03:02:27;;;;;;;43.15;22.23;;;;;;;;;;5054873;28;20028;-70
2021/12/30 03:04:53;;;;;;;48.05;23.27;;;;;;;;;;5072045;28;20379;-68
2021/12/30 03:07:19;;;;;;;40.03;20.55;;;;;;;;;;5054938;28;20116;-70
2021/12/30 03:09:46;;;;;;;42.33;22.75;;;;;;;;;;5055032;28;20386;-70
2021/12/30 03:12:12;;;;;;;48.13;22.50;;;;;;;;;;5072536;28;20029;-70
2021/12/30 03:14:41;;;;;;;40.72;21.52;;;;;;;;;;5072101;28;20050;-70
2021/12/30 03:17:07;;;;;;;35.47;17.55;;;;;;;;;;5072644;28;20398;-70
2021/12/30 03:19:33;;;;;;;36.45;18.40;;;;;;;;;;5054841;28;20466;-70
2021/12/30 03:21:59;;;;;;;28.73;12.82;;;;;;;;;;5054409;28;20028;-70
2021/12/30 03:24:25;;;;;;;23.73;10.73;;;;;;;;;;5070465;28;20031;-70
2021/12/30 03:26:51;;;;;;;20.08;10.50;;;;;;;;;;5072388;28;20029;-70
2021/12/30 03:29:17;;;;;;;30.95;16.27;;;;;;;;;;5072271;28;20039;-70
2021/12/30 03:31:43;;;;;;;17.90;9.77;;;;;;;;;;5072592;28;20032;-69
2021/12/30 03:34:09;;;;;;;13.32;7.03;;;;;;;;;;5071635;28;20535;-69
2021/12/30 03:36:37;;;;;;;4.05;2.92;;;;;;;;;;5070996;28;20028;-69
2021/12/30 03:39:04;;;;;;;6.55;3.95;;;;;;;;;;5070907;28;20078;-70
2021/12/30 03:41:30;;;;;;;7.65;4.03;;;;;;;;;;5072247;28;20107;-70
2021/12/30 03:43:59;;;;;;;8.80;5.53;;;;;;;;;;5071628;28;20024;-69
2021/12/30 03:46:25;;;;;;;6.68;4.25;;;;;;;;;;5071072;28;20371;-69
2021/12/30 03:48:51;;;;;;;11.13;5.65;;;;;;;;;;5071229;28;20287;-70
2021/12/30 03:51:24;;;;;;;7.63;4.32;;;;;;;;;;5071986;28;20303;-70
2021/12/30 03:53:51;;;;;;;6.15;4.03;;;;;;;;;;5071107;28;20035;-71
2021/12/30 03:56:19;;;;;;;7.60;4.25;;;;;;;;;;5072185;28;20060;-71
2021/12/30 03:58:46;;;;;;;13.77;6.40;;;;;;;;;;5072323;28;20032;-70
2021/12/30 04:01:14;;;;;;;8.65;4.93;;;;;;;;;;5070416;28;20020;-71
2021/12/30 04:03:40;;;;;;;9.98;6.10;;;;;;;;;;5070962;28;20506;-71
2021/12/30 04:06:06;;;;;;;7.32;5.07;;;;;;;;;;5070693;28;20362;-71
2021/12/30 04:08:32;;;;;;;12.18;6.75;;;;;;;;;;5071664;28;20021;-70
2021/12/30 04:10:59;;;;;;;6.95;4.30;;;;;;;;;;5071582;28;20099;-71
2021/12/30 04:13:25;;;;;;;10.93;6.20;;;;;;;;;;5070911;28;20432;-70
2021/12/30 04:15:52;;;;;;;10.00;4.75;;;;;;;;;;5071346;28;20024;-70
2021/12/30 04:18:17;;;;;;;8.98;5.20;;;;;;;;;;5071579;28;20039;-70
2021/12/30 04:20:44;;;;;;;7.82;4.65;;;;;;;;;;5071390;28;20099;-70
2021/12/30 04:23:10;;;;;;;11.07;5.22;;;;;;;;;;5070403;28;20028;-69
2021/12/30 04:25:37;;;;;;;9.10;5.00;;;;;;;;;;5071628;28;20041;-71
2021/12/30 04:28:03;;;;;;;8.57;4.55;;;;;;;;;;5071537;28;20112;-71
2021/12/30 04:30:29;;;;;;;9.90;4.70;;;;;;;;;;5071487;28;20032;-71
2021/12/30 04:32:55;;;;;;;9.38;3.80;;;;;;;;;;5070857;28;20032;-70
2021/12/30 04:35:21;;;;;;;7.80;4.07;;;;;;;;;;5070983;28;20685;-70
2021/12/30 04:37:47;;;;;;;8.65;4.13;;;;;;;;;;5071324;28;20363;-70
2021/12/30 04:40:13;;;;;;;7.03;4.05;;;;;;;;;;5071318;28;20025;-70
2021/12/30 04:42:39;;;;;;;9.27;5.40;;;;;;;;;;5070934;28;20073;-69
2021/12/30 04:45:06;;;;;;;10.77;4.68;;;;;;;;;;5060558;28;20025;-71
2021/12/30 04:47:32;;;;;;;15.38;6.90;;;;;;;;;;5051246;28;20028;-70
2021/12/30 04:49:58;;;;;;;13.63;6.03;;;;;;;;;;5051092;28;20025;-70
2021/12/30 04:54:58;;;;;;;5.60;4.00;;;;;;;;;;5085008;22;20514;-73
2021/12/30 04:57:24;;;;;;;7.60;4.80;;;;;;;;;;5071563;28;20031;-73
2021/12/30 04:59:51;;;;;;;9.27;5.93;;;;;;;;;;5071157;28;20029;-73
2021/12/30 05:02:17;;;;;;;11.43;6.22;;;;;;;;;;5071511;28;20037;-73
2021/12/30 05:04:43;;;;;;;9.82;4.57;;;;;;;;;;5070850;28;20025;-73
2021/12/30 05:07:09;;;;;;;8.40;3.95;;;;;;;;;;5071029;28;20423;-74
2021/12/30 05:09:35;;;;;;;8.27;4.93;;;;;;;;;;5071078;28;20032;-74
2021/12/30 05:12:01;;;;;;;7.65;4.63;;;;;;;;;;5071268;28;20043;-73
2021/12/30 05:14:27;;;;;;;11.30;5.55;;;;;;;;;;5072051;28;20474;-73
2021/12/30 05:16:55;;;;;;;10.98;5.63;;;;;;;;;;5075475;28;20039;-74
2021/12/30 05:19:21;;;;;;;10.48;5.38;;;;;;;;;;5074951;28;20112;-74
2021/12/30 05:21:47;;;;;;;6.88;4.18;;;;;;;;;;5074855;28;20059;-74
2021/12/30 05:24:13;;;;;;;6.30;4.20;;;;;;;;;;5074041;28;20052;-73
2021/12/30 05:26:39;;;;;;;6.95;4.40;;;;;;;;;;5074838;28;20402;-74
2021/12/30 05:29:05;;;;;;;8.77;4.47;;;;;;;;;;5074862;28;20039;-73
2021/12/30 05:31:31;;;;;;;10.40;4.93;;;;;;;;;;5074870;28;20173;-74
2021/12/30 05:33:57;;;;;;;9.63;4.90;;;;;;;;;;5074320;28;20441;-74
2021/12/30 05:36:23;;;;;;;11.02;5.20;;;;;;;;;;5074835;28;20020;-73
2021/12/30 05:38:49;;;;;;;7.35;4.25;;;;;;;;;;5057150;28;20119;-73
2021/12/30 05:41:15;;;;;;;9.02;5.55;;;;;;;;;;5075218;28;20496;-73
2021/12/30 05:43:41;;;;;;;11.35;5.45;;;;;;;;;;5056234;28;20056;-73
2021/12/30 05:46:07;;;;;;;11.65;5.35;;;;;;;;;;5074654;28;20025;-74
2021/12/30 05:48:33;;;;;;;9.73;5.05;;;;;;;;;;5074471;28;20028;-73
2021/12/30 05:51:00;;;;;;;9.63;5.38;;;;;;;;;;5056264;28;20016;-75
2021/12/30 05:53:27;;;;;;;8.20;4.50;;;;;;;;;;5073531;28;20043;-73
2021/12/30 05:55:53;;;;;;;10.25;5.80;;;;;;;;;;5074517;28;20021;-73
2021/12/30 05:58:19;;;;;;;11.30;5.07;;;;;;;;;;5074389;28;20027;-73
2021/12/30 06:00:45;;;;;;;9.18;4.97;;;;;;;;;;5074423;28;20024;-73
2021/12/30 06:03:11;;;;;;;11.13;5.78;;;;;;;;;;5073412;28;20503;-74
2021/12/30 06:05:37;;;;;;;10.82;6.43;;;;;;;;;;5074008;28;20024;-74
2021/12/30 06:08:03;;;;;;;14.20;6.68;;;;;;;;;;5056186;28;20070;-74
2021/12/30 06:10:29;;;;;;;11.32;6.57;;;;;;;;;;5074333;28;20032;-74
2021/12/30 06:12:55;;;;;;;12.55;6.55;;;;;;;;;;5055610;28;20028;-74
2021/12/30 06:15:21;;;;;;;11.02;5.75;;;;;;;;;;5073928;28;20035;-75
2021/12/30 06:17:47;;;;;;;13.25;6.32;;;;;;;;;;5074102;28;20170;-74
2021/12/30 06:20:13;;;;;;;11.00;5.70;;;;;;;;;;5055916;28;20048;-73
2021/12/30 06:22:40;;;;;;;7.82;4.70;;;;;;;;;;5073634;28;20454;-73
2021/12/30 06:25:06;;;;;;;7.00;3.95;;;;;;;;;;5073325;28;20082;-74
2021/12/30 06:27:32;;;;;;;10.38;3.78;;;;;;;;;;5073107;28;20017;-73
2021/12/30 06:29:58;;;;;;;9.65;4.97;;;;;;;;;;5073844;28;20043;-74
2021/12/30 06:32:24;;;;;;;10.55;3.97;;;;;;;;;;5073643;28;20029;-73
2021/12/30 06:34:50;;;;;;;6.95;4.00;;;;;;;;;;5072753;28;20025;-74
2021/12/30 06:37:16;;;;;;;9.20;4.00;;;;;;;;;;5070759;28;20040;-72
2021/12/30 06:39:42;;;;;;;8.23;3.75;;;;;;;;;;5066770;28;20036;-72
2021/12/30 06:42:08;;;;;;;11.90;5.32;;;;;;;;;;5073374;28;20028;-73
2021/12/30 06:44:34;;;;;;;7.82;4.88;;;;;;;;;;5054426;28;20017;-74
2021/12/30 06:47:02;;;;;;;8.73;4.60;;;;;;;;;;5073118;28;20021;-75
2021/12/30 06:49:35;;;;;;;12.77;5.30;;;;;;;;;;5073737;28;20560;-73
2021/12/30 06:52:02;;;;;;;9.43;4.32;;;;;;;;;;5056723;28;20032;-74
2021/12/30 06:54:28;;;;;;;10.25;4.47;;;;;;;;;;5054344;28;20399;-74
2021/12/30 06:56:55;;;;;;;7.43;4.78;;;;;;;;;;5073260;28;20091;-74
2021/12/30 06:59:21;;;;;;;8.57;4.28;;;;;;;;;;5072894;28;20032;-74
2021/12/30 07:01:47;;;;;;;10.38;4.53;;;;;;;;;;5073065;28;20478;-73
2021/12/30 07:04:13;;;;;;;9.60;4.30;;;;;;;;;;5072377;28;20560;-73
2021/12/30 07:06:39;;;;;;;7.53;4.07;;;;;;;;;;5073068;28;20052;-73
2021/12/30 07:09:05;;;;;;;8.55;4.18;;;;;;;;;;5072920;28;20104;-73
2021/12/30 07:11:31;;;;;;;7.05;3.83;;;;;;;;;;5072761;28;20512;-73
2021/12/30 07:13:57;;;;;;;9.35;3.53;;;;;;;;;;5053957;28;20032;-73
2021/12/30 07:16:23;;;;;;;9.48;4.50;;;;;;;;;;5072746;28;20111;-73
2021/12/30 07:18:49;;;;;;;7.93;3.65;;;;;;;;;;5072951;28;20086;-72
2021/12/30 07:21:16;;;;;;;9.00;4.47;;;;;;;;;;5072672;28;20054;-73
2021/12/30 07:23:43;;;;;;;9.05;4.65;;;;;;;;;;5071863;28;20020;-73
2021/12/30 07:26:09;;;;;;;8.15;4.20;;;;;;;;;;5054654;28;20017;-73
2021/12/30 07:28:34;;;;;;;8.38;4.40;;;;;;;;;;5071366;28;20032;-74
2021/12/30 07:31:00;;;;;;;10.75;4.45;;;;;;;;;;5053777;28;20055;-73
2021/12/30 07:33:26;;;;;;;6.97;3.80;;;;;;;;;;5051749;28;20021;-73
2021/12/30 07:35:52;;;;;;;10.60;4.93;;;;;;;;;;5035964;28;20025;-72
2021/12/30 07:38:18;;;;;;;10.43;4.45;;;;;;;;;;5033756;28;20047;-72
2021/12/30 07:40:44;;;;;;;8.98;4.60;;;;;;;;;;5052322;28;20061;-72
2021/12/30 07:43:10;;;;;;;10.10;4.28;;;;;;;;;;5033265;28;20067;-75
2021/12/30 07:45:36;;;;;;;7.65;3.95;;;;;;;;;;5037768;28;20020;-74
2021/12/30 07:48:02;;;;;;;9.57;4.00;;;;;;;;;;5061902;28;20146;-74
2021/12/30 07:50:28;;;;;;;11.98;4.72;;;;;;;;;;5062051;28;20020;-73
2021/12/30 07:52:54;;;;;;;9.13;3.92;;;;;;;;;;5051383;28;20055;-74
2021/12/30 07:55:21;;;;;;;9.65;4.57;;;;;;;;;;5052076;28;20047;-73
2021/12/30 07:57:47;;;;;;;9.35;3.90;;;;;;;;;;5070785;28;20402;-73
2021/12/30 08:00:15;;;;;;;6.70;3.90;;;;;;;;;;5070352;28;20039;-74
2021/12/30 08:02:42;;;;;;;9.15;3.88;;;;;;;;;;5069984;28;20150;-73
2021/12/30 08:05:09;;;;;;;7.97;3.78;;;;;;;;;;5069570;28;20095;-74
2021/12/30 08:07:35;;;;;;;9.02;4.07;;;;;;;;;;5069150;28;20035;-73
2021/12/30 08:10:01;;;;;;;14.50;4.30;;;;;;;;;;5069374;28;20569;-73
2021/12/30 08:12:27;;;;;;;10.07;4.45;;;;;;;;;;5070596;28;20623;-72
2021/12/30 08:14:52;;;;;;;11.40;3.75;;;;;;;;;;5069968;28;20079;-74
2021/12/30 08:17:18;;;;;;;6.75;3.40;;;;;;;;;;5071191;28;20444;-72
2021/12/30 08:19:44;;;;;;;8.73;3.85;;;;;;;;;;5071113;28;20386;-73
2021/12/30 08:22:10;;;;;;;9.00;4.32;;;;;;;;;;5071765;28;20031;-73
2021/12/30 08:24:36;;;;;;;9.75;4.10;;;;;;;;;;5071345;28;20028;-73
2021/12/30 08:27:03;;;;;;;5.53;3.30;;;;;;;;;;5053696;28;20056;-72
2021/12/30 08:29:31;;;;;;;7.68;4.00;;;;;;;;;;5071594;28;20542;-73
2021/12/30 08:31:57;;;;;;;11.02;3.92;;;;;;;;;;5071592;28;20044;-73
2021/12/30 08:34:24;;;;;;;7.30;3.88;;;;;;;;;;5053002;28;20024;-73
2021/12/30 08:36:49;;;;;;;9.07;3.58;;;;;;;;;;5056991;28;20025;-73
2021/12/30 08:39:16;;;;;;;9.80;4.13;;;;;;;;;;5059124;28;20096;-72
2021/12/30 08:41:41;;;;;;;9.07;4.00;;;;;;;;;;5070043;28;20032;-73
2021/12/30 08:44:07;;;;;;;8.70;3.42;;;;;;;;;;5054229;28;20021;-74
2021/12/30 08:46:33;;;;;;;7.22;4.05;;;;;;;;;;5053427;28;20074;-73
2021/12/30 08:48:59;;;;;;;8.85;3.60;;;;;;;;;;5070337;28;20032;-73
2021/12/30 08:51:25;;;;;;;11.43;3.92;;;;;;;;;;5064010;28;20455;-73
2021/12/30 08:53:51;;;;;;;10.35;4.75;;;;;;;;;;5045929;28;20020;-73
2021/12/30 08:56:17;;;;;;;10.35;4.30;;;;;;;;;;5075080;28;20020;-73
2021/12/30 08:58:43;;;;;;;10.95;4.70;;;;;;;;;;5075078;28;20025;-73
2021/12/30 09:01:09;;;;;;;6.60;3.80;;;;;;;;;;5075100;28;20024;-71
2021/12/30 09:03:35;;;;;;;6.65;3.75;;;;;;;;;;5074380;28;20048;-72
2021/12/30 09:06:01;;;;;;;9.45;4.28;;;;;;;;;;5042200;28;20474;-72
2021/12/30 09:08:27;;;;;;;8.15;4.03;;;;;;;;;;5075000;28;20025;-72
2021/12/30 09:10:53;;;;;;;10.45;4.40;;;;;;;;;;5057562;28;20123;-73
2021/12/30 09:13:20;;;;;;;14.45;4.32;;;;;;;;;;5072688;28;20326;-73
2021/12/30 09:15:46;;;;;;;8.30;3.78;;;;;;;;;;5074557;28;20025;-73
2021/12/30 09:18:13;;;;;;;12.32;4.10;;;;;;;;;;5075847;28;20036;-72
2021/12/30 09:20:40;;;;;;;8.43;4.10;;;;;;;;;;5074896;28;20032;-73
2021/12/30 09:23:07;;;;;;;10.25;4.47;;;;;;;;;;5056079;28;20115;-72
2021/12/30 09:25:34;;;;;;;7.68;3.65;;;;;;;;;;5057055;28;20036;-72
2021/12/30 09:28:01;;;;;;;10.20;4.03;;;;;;;;;;5075061;28;20040;-73
2021/12/30 09:30:28;;;;;;;9.43;3.58;;;;;;;;;;5074457;28;20052;-73
2021/12/30 09:32:55;;;;;;;8.98;3.20;;;;;;;;;;5055484;28;20090;-72
2021/12/30 09:35:22;;;;;;;7.30;3.20;;;;;;;;;;5072742;28;20496;-73
2021/12/30 09:37:48;;;;;;;11.23;3.83;;;;;;;;;;5072926;28;20145;-72
2021/12/30 09:40:15;;;;;;;6.60;3.22;;;;;;;;;;5073843;28;20058;-72
2021/12/30 09:42:47;;;;;;;9.30;3.75;;;;;;;;;;5073076;28;20024;-72
2021/12/30 09:45:13;;;;;;;8.95;3.47;;;;;;;;;;5073617;28;20028;-73
2021/12/30 09:47:49;;;;;;;10.32;3.58;;;;;;;;;;5074276;28;20020;-74
2021/12/30 09:50:16;;;;;;;9.02;3.83;;;;;;;;;;5056572;28;20025;-72
2021/12/30 09:52:42;;;;;;;14.13;3.53;;;;;;;;;;5073782;28;20016;-73
2021/12/30 09:55:08;;;;;;;16.77;4.07;;;;;;;;;;5073850;28;20451;-73
2021/12/30 09:57:34;;;;;;;5.63;2.63;;;;;;;;;;5038187;28;20082;-73
2021/12/30 10:00:00;;;;;;;7.15;2.70;;;;;;;;;;5053839;28;20067;-73
2021/12/30 10:02:26;;;;;;;9.77;2.75;;;;;;;;;;5051919;28;20075;-73
2021/12/30 10:05:09;;;;;;;7.88;3.00;;;;;;;;;;5052370;28;20036;-72
2021/12/30 10:07:39;;;;;;;9.10;3.08;;;;;;;;;;5053358;28;20452;-73
2021/12/30 10:10:24;;;;;;;9.38;2.50;;;;;;;;;;5053124;28;20025;-74
2021/12/30 10:12:50;;;;;;;10.13;2.67;;;;;;;;;;5035234;28;20029;-72
2021/12/30 10:15:16;;;;;;;7.38;2.60;;;;;;;;;;5054142;28;20040;-72
2021/12/30 10:17:42;;;;;;;12.23;3.13;;;;;;;;;;5053930;28;20025;-73
2021/12/30 10:20:29;;;;;;;8.77;3.17;;;;;;;;;;5036331;28;20496;-72
2021/12/30 10:22:56;;;;;;;10.93;2.75;;;;;;;;;;5053111;28;20525;-71
2021/12/30 10:25:25;;;;;;;7.53;2.95;;;;;;;;;;5054101;28;20025;-72
2021/12/30 10:27:52;;;;;;;7.82;2.70;;;;;;;;;;5035947;28;20021;-72
2021/12/30 10:30:34;;;;;;;8.32;2.55;;;;;;;;;;5053963;28;20274;-72
2021/12/30 10:33:16;;;;;;;8.60;2.33;;;;;;;;;;5052964;28;20032;-72
2021/12/30 10:35:42;;;;;;;5.07;2.10;;;;;;;;;;5053425;28;20486;-72
2021/12/30 10:38:10;;;;;;;5.50;2.33;;;;;;;;;;5053140;28;20029;-71
2021/12/30 10:40:37;;;;;;;7.63;2.13;;;;;;;;;;5056098;28;20028;-73
2021/12/30 10:43:35;;;;;;;6.72;2.17;;;;;;;;;;5072470;28;20024;-72
2021/12/30 10:46:01;;;;;;;5.40;2.00;;;;;;;;;;5074064;28;20021;-73
2021/12/30 10:48:27;;;;;;;7.85;2.45;;;;;;;;;;5073083;28;20028;-73
2021/12/30 10:51:08;;;;;;;11.20;2.50;;;;;;;;;;5072922;28;20047;-73
2021/12/30 10:53:36;;;;;;;;;;;;;;;;;;5084717;22;20132;-73
2021/12/30 10:56:25;;;;;;;7.13;1.83;;;;;;;;;;5093652;28;19916;-73
2021/12/30 10:58:53;;;;;;;4.75;2.20;;;;;;;;;;5080076;28;20028;-76
2021/12/30 11:01:20;;;;;;;4.93;1.63;;;;;;;;;;5093336;28;20481;-74
2021/12/30 11:03:56;;;;;;;7.70;2.22;;;;;;;;;;5074424;28;20032;-73
2021/12/30 11:06:22;;;;;;;6.88;1.98;;;;;;;;;;5093378;28;20030;-74
2021/12/30 11:08:50;;;;;;;5.93;2.30;;;;;;;;;;5091527;28;20024;-71
2021/12/30 11:11:23;;;;;;;351.30;204.68;;;;;;;;;;5088471;28;20050;-73
2021/12/30 11:14:03;;;;;;;171.82;89.45;;;;;;;;;;5074875;28;20070;-75
2021/12/30 11:16:29;;;;;;;233.82;110.10;;;;;;;;;;5085413;28;20021;-75
2021/12/30 11:18:58;;;;;;;113.78;44.05;;;;;;;;;;5077084;28;20025;-76
2021/12/30 11:21:36;;;;;;;64.30;26.38;;;;;;;;;;5082834;28;20028;-75
2021/12/30 11:24:03;;;;;;;67.05;29.45;;;;;;;;;;5073974;28;20405;-74
2021/12/30 11:26:29;;;;;;;212.52;124.93;;;;;;;;;;5073305;28;20435;-77
2021/12/30 11:28:56;;;;;;;184.82;91.35;;;;;;;;;;5082060;28;20024;-77
2021/12/30 11:31:22;;;;;;;72.50;32.63;;;;;;;;;;5078659;28;20024;-73
2021/12/30 11:33:49;;;;;;;78.90;36.85;;;;;;;;;;5073121;28;20625;-74
2021/12/30 11:36:16;;;;;;;26.05;11.35;;;;;;;;;;5072770;28;20138;-72
2021/12/30 11:38:43;;;;;;;14.98;7.18;;;;;;;;;;5054616;28;20101;-73
2021/12/30 11:41:16;;;;;;;50.53;24.17;;;;;;;;;;5076274;28;20107;-72
2021/12/30 11:43:43;;;;;;;35.15;17.10;;;;;;;;;;5076164;28;20103;-71
2021/12/30 11:46:28;;;;;;;25.95;12.43;;;;;;;;;;5074929;28;20032;-70
2021/12/30 11:48:55;;;;;;;43.80;19.85;;;;;;;;;;5082243;28;20027;-73
2021/12/30 11:51:23;;;;;;;38.78;18.25;;;;;;;;;;5077135;28;20032;-73
2021/12/30 11:53:50;;;;;;;44.63;20.98;;;;;;;;;;5079191;28;20375;-71
2021/12/30 11:56:25;;;;;;;62.08;28.88;;;;;;;;;;5071535;28;20107;-70
2021/12/30 11:58:55;;;;;;;63.78;29.42;;;;;;;;;;5071623;28;20056;-71
2021/12/30 12:01:21;;;;;;;42.78;19.77;;;;;;;;;;5085873;28;20038;-70
2021/12/30 12:03:53;;;;;;;22.90;11.02;;;;;;;;;;5074235;28;20028;-70
2021/12/30 12:06:25;;;;;;;33.08;15.60;;;;;;;;;;5065106;28;20016;-71
2021/12/30 12:08:51;;;;;;;26.48;12.93;;;;;;;;;;5068620;28;20099;-70
2021/12/30 12:11:18;;;;;;;25.63;12.65;;;;;;;;;;5069773;28;20103;-70
2021/12/30 12:13:45;;;;;;;32.10;15.95;;;;;;;;;;5086148;28;20433;-72
2021/12/30 12:16:13;;;;;;;28.50;12.18;;;;;;;;;;5074973;28;20039;-72
2021/12/30 12:18:59;;;;;;;37.30;17.10;;;;;;;;;;5079641;28;20030;-70
2021/12/30 12:21:37;;;;;;;27.35;11.25;;;;;;;;;;5064955;28;20028;-70
2021/12/30 12:24:27;;;;;;;11.63;5.32;;;;;;;;;;5073965;28;20024;-71
2021/12/30 12:26:55;;;;;;;11.05;5.82;;;;;;;;;;5080137;28;20017;-70
2021/12/30 12:29:32;;;;;;;25.52;11.30;;;;;;;;;;5081205;28;20089;-71
2021/12/30 12:31:58;;;;;;;39.75;19.38;;;;;;;;;;5070233;28;20030;-71
2021/12/30 12:34:43;;;;;;;25.02;11.38;;;;;;;;;;5082011;28;20109;-71
2021/12/30 12:37:27;;;;;;;12.13;5.38;;;;;;;;;;5081253;28;20028;-71
2021/12/30 12:40:01;;;;;;;11.48;5.30;;;;;;;;;;5072203;28;20082;-70
2021/12/30 12:42:45;;;;;;;18.63;8.70;;;;;;;;;;5082041;28;20035;-71
2021/12/30 12:45:15;;;;;;;33.95;16.67;;;;;;;;;;5083287;28;20042;-71
2021/12/30 12:47:40;;;;;;;43.80;22.23;;;;;;;;;;5058134;28;20012;-71
2021/12/30 12:50:07;;;;;;;25.55;11.93;;;;;;;;;;5074764;28;20032;-71
2021/12/30 12:52:47;;;;;;;18.88;9.13;;;;;;;;;;5082874;28;20024;-71
2021/12/30 12:55:17;;;;;;;21.73;9.50;;;;;;;;;;5082811;28;20527;-72
2021/12/30 12:57:43;;;;;;;18.92;9.48;;;;;;;;;;5069059;28;20031;-71
2021/12/30 13:00:10;;;;;;;10.77;5.68;;;;;;;;;;5075399;28;20127;-72
2021/12/30 13:02:36;;;;;;;22.73;9.45;;;;;;;;;;5082626;28;20503;-72
2021/12/30 13:05:10;;;;;;;14.30;7.00;;;;;;;;;;5081735;28;20712;-72
2021/12/30 13:07:36;;;;;;;5.55;2.13;;;;;;;;;;5056271;28;20017;-72
2021/12/30 13:10:02;;;;;;;14.57;6.63;;;;;;;;;;5074304;28;20035;-71
2021/12/30 13:12:34;;;;;;;23.20;8.98;;;;;;;;;;5065841;28;20371;-72
2021/12/30 13:15:00;;;;;;;7.55;3.60;;;;;;;;;;5063520;28;20061;-71
2021/12/30 13:17:25;;;;;;;9.15;4.78;;;;;;;;;;5076391;28;20107;-69
2021/12/30 13:19:52;;;;;;;12.40;5.38;;;;;;;;;;5087892;28;20024;-72
2021/12/30 13:22:20;;;;;;;5.15;2.22;;;;;;;;;;5077442;28;20089;-72
2021/12/30 13:24:48;;;;;;;9.85;4.65;;;;;;;;;;5082114;28;20020;-71
2021/12/30 13:27:14;;;;;;;6.78;2.80;;;;;;;;;;5086128;28;20051;-72
2021/12/30 13:29:46;;;;;;;9.60;4.68;;;;;;;;;;5076107;28;20428;-70
2021/12/30 13:32:23;;;;;;;5.13;2.63;;;;;;;;;;5069697;28;20075;-72
2021/12/30 13:35:19;;;;;;;6.55;3.40;;;;;;;;;;5075752;28;20082;-71
2021/12/30 13:37:45;;;;;;;5.18;2.75;;;;;;;;;;5069522;28;20031;-70
2021/12/30 13:40:13;;;;;;;6.97;3.72;;;;;;;;;;5078865;28;20573;-71
2021/12/30 13:42:45;;;;;;;5.03;2.22;;;;;;;;;;5085010;28;20067;-71
2021/12/30 13:45:11;;;;;;;5.63;3.30;;;;;;;;;;5087332;28;20046;-71
2021/12/30 13:47:39;;;;;;;13.27;6.75;;;;;;;;;;5059153;28;20393;-71
2021/12/30 13:50:07;;;;;;;8.82;3.92;;;;;;;;;;5091028;28;20035;-71
2021/12/30 13:52:35;;;;;;;6.53;2.38;;;;;;;;;;5085392;28;20033;-71
2021/12/30 13:55:08;;;;;;;4.90;2.72;;;;;;;;;;5090738;28;20093;-70
2021/12/30 13:57:35;;;;;;;7.60;3.60;;;;;;;;;;5077338;28;20497;-71
2021/12/30 14:00:01;;;;;;;7.55;3.95;;;;;;;;;;5090699;28;20046;-71
2021/12/30 14:02:27;;;;;;;10.93;4.45;;;;;;;;;;5080737;28;20100;-72
2021/12/30 14:05:02;;;;;;;5.30;2.65;;;;;;;;;;5082109;28;20474;-72
2021/12/30 14:07:33;;;;;;;9.02;4.53;;;;;;;;;;5071141;28;20386;-72
2021/12/30 14:09:59;;;;;;;4.20;1.55;;;;;;;;;;5076966;28;20012;-71
2021/12/30 14:12:25;;;;;;;7.25;2.78;;;;;;;;;;5087191;28;20482;-68
2021/12/30 14:14:51;;;;;;;6.57;3.35;;;;;;;;;;5083938;28;20520;-72
2021/12/30 14:17:18;;;;;;;5.30;2.85;;;;;;;;;;5066989;28;20146;-72
2021/12/30 14:19:49;;;;;;;4.07;2.60;;;;;;;;;;5083544;28;20028;-71
2021/12/30 14:22:16;;;;;;;7.43;2.83;;;;;;;;;;5078854;28;20024;-71
2021/12/30 14:24:43;;;;;;;3.90;2.15;;;;;;;;;;5082136;28;20024;-72
2021/12/30 14:27:16;;;;;;;5.32;2.75;;;;;;;;;;5085449;28;20032;-77
2021/12/30 14:29:42;;;;;;;73.90;42.65;;;;;;;;;;5065264;28;20059;-74
2021/12/30 14:32:11;;;;;;;45.85;24.15;;;;;;;;;;5079758;28;20025;-70
2021/12/30 14:34:45;;;;;;;130.23;67.00;;;;;;;;;;5066090;28;20119;-76
2021/12/30 14:37:11;;;;;;;119.38;59.33;;;;;;;;;;5082825;28;20024;-70
2021/12/30 14:39:40;;;;;;;278.80;113.40;;;;;;;;;;5091959;28;20024;-71